createdAt,value
2022-08-17T00:01:27.243Z,23.77
2022-08-17T00:03:54.599Z,23.65
2022-08-17T00:06:24.894Z,25.48
2022-08-17T00:09:02.098Z,24.27
2022-08-17T00:11:35.979Z,25.48
2022-08-17T00:14:06.561Z,25.80
2022-08-17T00:16:50.518Z,25.27
2022-08-17T00:19:25.610Z,29.20
2022-08-17T00:22:29.540Z,24.55
2022-08-17T00:24:42.450Z,28.23
2022-08-17T00:27:08.881Z,29.05
2022-08-17T00:29:35.290Z,28.52
2022-08-17T00:33:14.245Z,28.10
2022-08-17T00:34:49.979Z,25.83
2022-08-17T00:37:16.722Z,27.48
2022-08-17T00:39:43.213Z,30.23
2022-08-17T00:42:15.339Z,28.85
2022-08-17T00:44:41.761Z,29.50
2022-08-17T00:47:08.287Z,29.88
2022-08-17T00:49:34.703Z,34.67
2022-08-17T00:52:11.783Z,31.27
2022-08-17T00:54:42.480Z,30.15
2022-08-17T00:57:31.133Z,29.08
2022-08-17T01:00:04.988Z,30.23
2022-08-17T01:02:43.017Z,30.88
2022-08-17T01:05:25.429Z,30.30
2022-08-17T01:07:52.964Z,35.67
2022-08-17T01:10:58.384Z,40.63
2022-08-17T01:13:16.127Z,39.00
2022-08-17T01:16:03.258Z,38.83
2022-08-17T01:18:29.774Z,37.35
2022-08-17T01:20:58.943Z,40.17
2022-08-17T01:23:28.818Z,40.17
2022-08-17T01:25:58.117Z,38.55
2022-08-17T01:28:52.490Z,39.90
2022-08-17T01:33:41.334Z,38.67
2022-08-17T01:36:09.218Z,43.60
2022-08-17T01:38:37.231Z,42.53
2022-08-17T01:41:10.666Z,38.45
2022-08-17T01:43:53.927Z,42.65
2022-08-17T01:46:26.962Z,42.47
2022-08-17T01:48:54.555Z,41.70
2022-08-17T01:51:21.620Z,46.10
2022-08-17T01:53:51.901Z,46.17
2022-08-17T01:56:21.268Z,40.78
2022-08-17T01:58:48.695Z,41.20
2022-08-17T02:01:17.146Z,41.47
2022-08-17T02:03:59.102Z,39.70
2022-08-17T02:06:43.982Z,39.17
2022-08-17T02:09:16.618Z,41.15
2022-08-17T02:11:44.363Z,43.65
2022-08-17T02:14:11.983Z,41.17
2022-08-17T02:16:40.576Z,41.38
2022-08-17T02:19:11.275Z,40.22
2022-08-17T02:21:40.382Z,43.63
2022-08-17T02:24:10.912Z,41.72
2022-08-17T02:26:37.846Z,41.67
2022-08-17T02:29:04.530Z,43.05
2022-08-17T02:31:31.113Z,43.28
2022-08-17T02:34:03.695Z,42.90
2022-08-17T02:36:34.883Z,43.30
2022-08-17T02:39:06.807Z,42.45
2022-08-17T02:41:33.751Z,39.35
2022-08-17T02:44:00.353Z,40.70
2022-08-17T02:46:26.914Z,38.83
2022-08-17T02:48:53.357Z,39.45
2022-08-17T02:51:20.031Z,39.63
2022-08-17T02:53:46.830Z,40.33
2022-08-17T02:56:13.664Z,38.70
2022-08-17T02:58:40.269Z,38.55
2022-08-17T03:01:09.684Z,38.80
2022-08-17T03:03:37.971Z,39.28
2022-08-17T03:06:05.854Z,40.35
2022-08-17T03:08:32.298Z,39.83
2022-08-17T03:10:59.016Z,38.67
2022-08-17T03:13:25.475Z,40.83
2022-08-17T03:15:51.886Z,44.92
2022-08-17T03:18:25.264Z,48.28
2022-08-17T03:21:01.597Z,45.78
2022-08-17T03:23:29.620Z,44.53
2022-08-17T03:25:57.275Z,45.05
2022-08-17T03:28:24.672Z,42.92
2022-08-17T03:30:52.372Z,42.55
2022-08-17T03:33:19.962Z,43.88
2022-08-17T03:35:46.550Z,45.03
2022-08-17T03:38:15.900Z,45.17
2022-08-17T03:40:56.674Z,47.25
2022-08-17T03:43:25.223Z,46.22
2022-08-17T03:46:28.810Z,51.25
2022-08-17T03:49:15.436Z,51.97
2022-08-17T03:52:00.383Z,54.05
2022-08-17T03:54:45.630Z,57.15
2022-08-17T03:57:12.445Z,53.15
2022-08-17T03:59:39.440Z,54.30
2022-08-17T04:02:16.198Z,59.03
2022-08-17T04:04:42.664Z,59.28
2022-08-17T04:07:09.739Z,59.63
2022-08-17T04:09:36.655Z,59.40
2022-08-17T04:12:04.793Z,57.03
2022-08-17T04:14:39.201Z,56.17
2022-08-17T04:17:20.023Z,53.70
2022-08-17T04:19:46.634Z,57.67
2022-08-17T04:22:30.204Z,56.45
2022-08-17T04:24:58.772Z,50.35
2022-08-17T04:27:25.428Z,54.50
2022-08-17T04:29:55.113Z,56.92
2022-08-17T04:33:04.290Z,55.63
2022-08-17T04:35:09.795Z,56.08
2022-08-17T04:37:36.190Z,55.38
2022-08-17T04:40:21.629Z,55.47
2022-08-17T04:43:01.332Z,53.38
2022-08-17T04:47:59.808Z,48.75
2022-08-17T04:50:26.467Z,51.55
2022-08-17T04:52:52.856Z,52.58
2022-08-17T04:55:19.296Z,49.05
2022-08-17T04:57:45.785Z,45.88
2022-08-17T05:00:12.747Z,55.58
2022-08-17T05:02:50.611Z,50.55
2022-08-17T05:05:21.833Z,51.17
2022-08-17T05:07:50.727Z,52.17
2022-08-17T05:10:17.405Z,53.85
2022-08-17T05:12:43.817Z,53.03
2022-08-17T05:15:17.621Z,50.28
2022-08-17T05:17:46.817Z,51.95
2022-08-17T05:20:13.239Z,51.05
2022-08-17T05:22:55.641Z,51.47
2022-08-17T05:25:25.783Z,49.70
2022-08-17T05:27:54.789Z,55.38
2022-08-17T05:30:21.829Z,57.30
2022-08-17T05:32:54.252Z,49.13
2022-08-17T05:35:21.710Z,57.00
2022-08-17T05:37:48.244Z,55.70
2022-08-17T05:40:15.135Z,51.90
2022-08-17T05:42:42.078Z,58.05
2022-08-17T05:45:09.936Z,53.72
2022-08-17T05:47:38.888Z,58.28
2022-08-17T05:50:10.311Z,56.63
2022-08-17T05:53:18.891Z,55.55
2022-08-17T05:56:10.914Z,56.72
2022-08-17T05:59:18.861Z,53.90
2022-08-17T06:01:59.655Z,55.97
2022-08-17T06:05:10.866Z,56.17
2022-08-17T06:08:08.897Z,53.22
2022-08-17T06:11:13.072Z,51.15
2022-08-17T06:13:45.150Z,51.97
2022-08-17T06:16:31.118Z,49.38
2022-08-17T06:19:10.092Z,48.25
2022-08-17T06:21:43.040Z,47.75
2022-08-17T06:24:35.445Z,47.53
2022-08-17T06:27:27.519Z,46.08
2022-08-17T06:30:02.097Z,44.17
2022-08-17T06:32:29.238Z,42.95
2022-08-17T06:34:57.403Z,44.38
2022-08-17T06:37:37.324Z,41.72
2022-08-17T06:40:15.968Z,40.38
2022-08-17T06:43:06.637Z,41.03
2022-08-17T06:45:49.212Z,37.80
2022-08-17T06:48:29.077Z,38.53
2022-08-17T06:51:02.493Z,38.05
2022-08-17T06:53:37.008Z,36.67
2022-08-17T06:56:19.718Z,35.88
2022-08-17T06:58:46.797Z,33.60
2022-08-17T07:01:25.100Z,34.60
2022-08-17T07:04:11.563Z,33.65
2022-08-17T07:06:53.111Z,33.03
2022-08-17T07:09:28.708Z,29.50
2022-08-17T07:12:03.210Z,29.00
2022-08-17T07:15:05.332Z,32.58
2022-08-17T07:17:46.636Z,30.92
2022-08-17T07:20:17.878Z,29.55
2022-08-17T07:23:08.843Z,27.65
2022-08-17T07:25:35.314Z,27.42
2022-08-17T07:28:07.024Z,28.95
2022-08-17T07:30:45.849Z,26.27
2022-08-17T07:33:20.087Z,25.25
2022-08-17T07:35:48.253Z,24.92
2022-08-17T07:38:28.229Z,21.70
2022-08-17T07:41:04.824Z,23.42
2022-08-17T07:43:40.643Z,23.52
2022-08-17T07:46:38.149Z,21.77
2022-08-17T07:49:07.545Z,22.63
2022-08-17T07:51:37.830Z,20.80
2022-08-17T07:54:24.713Z,19.67
2022-08-17T07:57:10.362Z,19.15
2022-08-17T07:59:41.266Z,20.33
2022-08-17T08:02:34.342Z,19.05
2022-08-17T08:05:12.883Z,17.98
2022-08-17T08:07:48.294Z,16.77
2022-08-17T08:10:25.162Z,17.42
2022-08-17T08:13:06.474Z,16.80
2022-08-17T08:15:40.700Z,16.35
2022-08-17T08:18:54.369Z,16.17
2022-08-17T08:21:52.093Z,16.40
2022-08-17T08:24:36.630Z,15.20
2022-08-17T08:27:18.863Z,14.75
2022-08-17T08:30:06.146Z,14.30
2022-08-17T08:32:39.590Z,15.00
2022-08-17T08:35:30.828Z,14.75
2022-08-17T08:38:28.535Z,15.13
2022-08-17T08:41:25.442Z,14.70
2022-08-17T08:44:22.048Z,14.00
2022-08-17T08:47:26.483Z,13.13
2022-08-17T08:50:37.232Z,13.85
2022-08-17T08:53:23.525Z,14.27
2022-08-17T08:56:16.396Z,13.85
2022-08-17T08:59:15.945Z,12.70
2022-08-17T09:05:10.644Z,12.82
2022-08-17T09:08:11.036Z,12.65
2022-08-17T09:10:43.353Z,12.38
2022-08-17T09:13:37.005Z,13.18
2022-08-17T09:16:15.255Z,12.65
2022-08-17T09:19:03.352Z,12.55
2022-08-17T09:22:11.997Z,12.15
2022-08-17T09:24:47.278Z,12.65
2022-08-17T09:27:18.424Z,11.95
2022-08-17T09:29:59.708Z,11.90
2022-08-17T09:32:45.780Z,12.38
2022-08-17T09:35:22.857Z,11.23
2022-08-17T09:38:10.677Z,11.20
2022-08-17T09:40:51.458Z,11.68
2022-08-17T09:43:37.402Z,11.00
2022-08-17T09:46:21.812Z,10.90
2022-08-17T09:49:14.913Z,10.90
2022-08-17T09:51:49.564Z,11.23
2022-08-17T09:54:41.758Z,10.45
2022-08-17T09:57:34.756Z,10.55
2022-08-17T10:00:27.172Z,10.45
2022-08-17T10:03:12.149Z,10.73
2022-08-17T10:05:51.172Z,10.40
2022-08-17T10:09:08.230Z,10.15
2022-08-17T10:12:29.783Z,10.18
2022-08-17T10:14:59.951Z,9.77
2022-08-17T10:17:45.572Z,10.23
2022-08-17T10:20:17.949Z,9.82
2022-08-17T10:23:12.935Z,10.40
2022-08-17T10:26:08.998Z,10.43
2022-08-17T10:28:49.925Z,10.18
2022-08-17T10:31:35.460Z,11.07
2022-08-17T10:34:40.360Z,10.70
2022-08-17T10:37:19.674Z,11.02
2022-08-17T10:39:57.303Z,10.55
2022-08-17T10:42:42.626Z,11.23
2022-08-17T10:45:29.433Z,11.45
2022-08-17T10:48:07.499Z,11.45
2022-08-17T10:50:49.310Z,11.18
2022-08-17T10:53:34.870Z,10.73
2022-08-17T10:56:14.085Z,11.02
2022-08-17T10:58:58.914Z,11.68
2022-08-17T11:01:34.486Z,12.23
2022-08-17T11:04:17.584Z,11.32
2022-08-17T11:06:47.336Z,11.35
2022-08-17T11:12:24.127Z,10.77
2022-08-17T11:15:05.063Z,11.18
2022-08-17T11:17:50.224Z,11.10
2022-08-17T11:20:42.979Z,10.57
2022-08-17T11:23:39.927Z,10.43
2022-08-17T11:26:25.887Z,10.95
2022-08-17T11:28:59.479Z,10.70
2022-08-17T11:31:38.891Z,11.45
2022-08-17T11:34:27.456Z,11.15
2022-08-17T11:37:20.663Z,10.50
2022-08-17T11:40:21.364Z,10.40
2022-08-17T11:42:59.935Z,10.40
2022-08-17T11:45:40.112Z,10.38
2022-08-17T11:48:34.476Z,10.88
2022-08-17T11:51:33.868Z,9.90
2022-08-17T11:54:31.299Z,9.80
2022-08-17T11:56:52.865Z,10.65
2022-08-17T11:59:39.932Z,9.30
2022-08-17T12:02:31.732Z,10.40
2022-08-17T12:05:04.784Z,9.57
2022-08-17T12:10:23.655Z,10.23
2022-08-17T12:12:53.191Z,9.75
2022-08-17T12:15:31.246Z,10.07
2022-08-17T12:17:58.761Z,10.02
2022-08-17T12:20:42.077Z,9.98
2022-08-17T12:23:44.202Z,10.35
2022-08-17T12:26:25.025Z,10.65
2022-08-17T12:28:58.750Z,10.32
2022-08-17T12:31:45.415Z,10.63
2022-08-17T12:34:15.929Z,10.35
2022-08-17T12:36:42.812Z,10.25
2022-08-17T12:39:12.979Z,10.60
2022-08-17T12:41:47.839Z,10.93
2022-08-17T12:44:21.122Z,10.80
2022-08-17T12:47:00.499Z,11.27
2022-08-17T12:52:25.588Z,11.02
2022-08-17T12:55:21.254Z,11.15
2022-08-17T12:57:54.183Z,10.35
2022-08-17T13:00:38.076Z,10.10
2022-08-17T13:03:09.474Z,10.48
2022-08-17T13:05:42.878Z,10.32
2022-08-17T13:08:20.063Z,9.93
2022-08-17T13:11:06.148Z,10.15
2022-08-17T13:13:37.071Z,10.20
2022-08-17T13:16:09.481Z,10.25
2022-08-17T13:18:43.654Z,10.60
2022-08-17T13:21:30.310Z,9.52
2022-08-17T13:24:25.934Z,9.65
2022-08-17T13:26:59.201Z,9.77
2022-08-17T13:29:44.148Z,10.27
2022-08-17T13:32:14.112Z,10.55
2022-08-17T13:34:56.149Z,10.48
2022-08-17T13:37:35.117Z,10.43
2022-08-17T13:40:10.834Z,10.63
2022-08-17T13:42:53.164Z,10.15
2022-08-17T13:45:35.024Z,9.98
2022-08-17T13:48:08.531Z,10.45
2022-08-17T13:50:55.483Z,10.30
2022-08-17T13:53:37.961Z,10.60
2022-08-17T13:56:31.674Z,10.65
2022-08-17T13:59:04.729Z,11.55
2022-08-17T14:01:53.564Z,11.15
2022-08-17T14:04:24.486Z,11.73
2022-08-17T14:06:58.879Z,11.45
2022-08-17T14:09:37.165Z,10.55
2022-08-17T14:12:08.614Z,10.60
2022-08-17T14:14:36.310Z,11.20
2022-08-17T14:17:03.171Z,11.38
2022-08-17T14:19:29.675Z,11.30
2022-08-17T14:21:59.017Z,11.23
2022-08-17T14:24:31.251Z,11.05
2022-08-17T14:26:59.971Z,10.68
2022-08-17T14:29:29.035Z,10.83
2022-08-17T14:31:58.447Z,11.60
2022-08-17T14:34:25.459Z,11.30
2022-08-17T14:36:52.326Z,11.00
2022-08-17T14:39:19.448Z,10.50
2022-08-17T14:41:46.329Z,10.48
2022-08-17T14:44:13.221Z,10.40
2022-08-17T14:46:41.213Z,10.38
2022-08-17T14:49:10.767Z,10.60
2022-08-17T14:51:43.869Z,10.25
2022-08-17T14:54:28.755Z,10.15
2022-08-17T14:57:11.523Z,10.85
2022-08-17T14:59:45.172Z,10.40
2022-08-17T15:02:12.964Z,10.70
2022-08-17T15:04:44.892Z,10.50
2022-08-17T15:07:11.894Z,10.30
2022-08-17T15:09:39.049Z,10.70
2022-08-17T15:12:06.671Z,10.52
2022-08-17T15:14:34.304Z,11.00
2022-08-17T15:17:02.082Z,10.75
2022-08-17T15:19:28.540Z,10.70
2022-08-17T15:21:54.998Z,10.75
2022-08-17T15:24:21.422Z,10.88
2022-08-17T15:26:47.967Z,10.52
2022-08-17T15:29:14.627Z,11.05
2022-08-17T15:31:41.136Z,11.02
2022-08-17T15:34:08.128Z,10.48
2022-08-17T15:36:35.823Z,10.73
2022-08-17T15:39:03.116Z,11.07
2022-08-17T15:41:29.874Z,10.77
2022-08-17T15:43:56.439Z,10.05
2022-08-17T15:46:25.607Z,11.05
2022-08-17T15:48:56.552Z,10.50
2022-08-17T15:51:32.018Z,10.80
2022-08-17T15:54:18.767Z,11.15
2022-08-17T15:56:49.210Z,10.80
2022-08-17T15:59:15.747Z,11.93
2022-08-17T16:03:01.359Z,11.43
2022-08-17T16:04:30.811Z,11.05
2022-08-17T16:06:58.685Z,10.98
2022-08-17T16:09:25.096Z,11.88
2022-08-17T16:11:52.170Z,12.00
2022-08-17T16:14:22.328Z,12.65
2022-08-17T16:16:49.633Z,12.38
2022-08-17T16:19:16.210Z,12.23
2022-08-17T16:21:43.349Z,12.23
2022-08-17T16:24:13.344Z,11.13
2022-08-17T16:26:40.435Z,12.20
2022-08-17T16:29:07.768Z,12.00
2022-08-17T16:31:36.072Z,12.23
2022-08-17T16:34:17.176Z,12.88
2022-08-17T16:36:51.836Z,12.73
2022-08-17T16:39:22.538Z,11.98
2022-08-17T16:41:50.234Z,12.77
2022-08-17T16:44:19.834Z,12.77
2022-08-17T16:49:35.574Z,12.85
2022-08-17T16:52:03.118Z,13.07
2022-08-17T16:54:29.570Z,12.57
2022-08-17T16:56:56.006Z,12.48
2022-08-17T16:59:38.744Z,12.77
2022-08-17T17:02:12.546Z,12.43
2022-08-17T17:04:47.988Z,12.02
2022-08-17T17:07:34.133Z,11.65
2022-08-17T17:10:14.683Z,11.80
2022-08-17T17:13:03.267Z,11.65
2022-08-17T17:15:46.146Z,12.43
2022-08-17T17:18:15.325Z,11.25
2022-08-17T17:20:58.227Z,11.70
2022-08-17T17:23:37.112Z,11.57
2022-08-17T17:26:14.041Z,11.45
2022-08-17T17:28:46.315Z,11.25
2022-08-17T17:31:18.053Z,11.57
2022-08-17T17:33:52.515Z,12.13
2022-08-17T17:36:41.884Z,12.30
2022-08-17T17:39:43.900Z,13.60
2022-08-17T17:42:14.476Z,12.55
2022-08-17T17:45:12.410Z,12.57
2022-08-17T17:47:38.911Z,12.73
2022-08-17T17:50:07.205Z,12.48
2022-08-17T17:52:36.526Z,12.20
2022-08-17T17:55:30.902Z,13.07
2022-08-17T17:58:20.700Z,13.30
2022-08-17T18:01:05.199Z,12.98
2022-08-17T18:03:52.966Z,13.63
2022-08-17T18:06:58.047Z,12.80
2022-08-17T18:09:39.491Z,12.85
2022-08-17T18:12:15.928Z,12.70
2022-08-17T18:14:58.278Z,12.20
2022-08-17T18:17:24.737Z,13.00
2022-08-17T18:19:55.281Z,13.20
2022-08-17T18:22:23.545Z,12.65
2022-08-17T18:24:55.841Z,12.65
2022-08-17T18:27:34.597Z,12.70
2022-08-17T18:30:12.473Z,12.80
2022-08-17T18:32:43.693Z,12.68
2022-08-17T18:35:10.207Z,12.35
2022-08-17T18:37:51.797Z,13.00
2022-08-17T18:40:19.455Z,11.57
2022-08-17T18:42:54.871Z,12.23
2022-08-17T18:45:35.896Z,12.50
2022-08-17T18:48:02.924Z,12.18
2022-08-17T18:50:42.171Z,19.00
2022-08-17T18:53:34.178Z,26.45
2022-08-17T18:56:33.374Z,27.80
2022-08-17T18:59:05.588Z,28.55
2022-08-17T19:01:59.985Z,29.85
2022-08-17T19:04:33.360Z,29.85
2022-08-17T19:07:26.249Z,32.33
2022-08-17T19:09:58.246Z,31.33
2022-08-17T19:12:27.131Z,32.03
2022-08-17T19:14:56.863Z,33.53
2022-08-17T19:17:51.153Z,34.33
2022-08-17T19:20:22.621Z,35.28
2022-08-17T19:23:10.801Z,36.05
2022-08-17T19:25:44.383Z,36.22
2022-08-17T19:28:22.254Z,37.10
2022-08-17T19:30:55.268Z,37.92
2022-08-17T19:33:22.134Z,37.67
2022-08-17T19:36:15.851Z,37.22
2022-08-17T19:38:53.004Z,38.95
2022-08-17T19:41:28.329Z,38.35
2022-08-17T19:44:32.148Z,38.85
2022-08-17T19:47:07.642Z,39.42
2022-08-17T19:50:10.639Z,39.00
2022-08-17T19:52:58.214Z,38.20
2022-08-17T19:55:38.771Z,39.45
2022-08-17T19:58:18.347Z,40.17
2022-08-17T20:00:51.255Z,38.70
2022-08-17T20:03:24.765Z,39.33
2022-08-17T20:06:12.560Z,39.13
2022-08-17T20:08:53.881Z,39.38
2022-08-17T20:11:27.867Z,39.10
2022-08-17T20:14:07.670Z,38.97
2022-08-17T20:16:34.242Z,39.10
2022-08-17T20:19:06.482Z,39.47
2022-08-17T20:21:59.542Z,38.90
2022-08-17T20:24:39.077Z,39.95
2022-08-17T20:27:18.310Z,39.85
2022-08-17T20:30:09.292Z,39.93
2022-08-17T20:32:53.362Z,38.80
2022-08-17T20:35:25.357Z,39.30
2022-08-17T20:37:56.437Z,40.10
2022-08-17T20:40:29.874Z,40.00
2022-08-17T20:42:57.157Z,40.05
2022-08-17T20:45:24.367Z,41.10
2022-08-17T20:48:22.127Z,40.35
2022-08-17T20:50:48.155Z,40.45
2022-08-17T20:53:57.675Z,39.95
2022-08-17T20:56:43.013Z,40.53
2022-08-17T20:59:25.767Z,42.58
2022-08-17T21:02:17.478Z,41.10
2022-08-17T21:04:51.256Z,40.50
2022-08-17T21:07:41.043Z,40.00
2022-08-17T21:10:25.567Z,40.03
2022-08-17T21:13:13.303Z,41.03
2022-08-17T21:15:56.087Z,40.13
2022-08-17T21:18:38.788Z,39.85
2022-08-17T21:21:25.894Z,39.58
2022-08-17T21:24:05.489Z,39.30
2022-08-17T21:26:38.960Z,40.28
2022-08-17T21:29:32.315Z,40.45
2022-08-17T21:32:03.374Z,39.05
2022-08-17T21:34:35.965Z,38.42
2022-08-17T21:37:22.009Z,39.33
2022-08-17T21:39:55.161Z,38.78
2022-08-17T21:42:32.442Z,38.72
2022-08-17T21:45:18.060Z,39.53
2022-08-17T21:47:49.918Z,39.42
2022-08-17T21:50:22.899Z,41.08
2022-08-17T21:52:53.941Z,39.03
2022-08-17T21:55:28.660Z,39.47
2022-08-17T21:58:13.552Z,39.50
2022-08-17T22:00:44.182Z,39.20
2022-08-17T22:03:24.267Z,40.22
2022-08-17T22:05:51.253Z,39.25
2022-08-17T22:08:20.962Z,39.90
2022-08-17T22:10:50.693Z,39.00
2022-08-17T22:13:17.691Z,38.40
2022-08-17T22:16:28.000Z,39.45
2022-08-17T22:18:58.488Z,38.08
2022-08-17T22:21:26.350Z,39.25
2022-08-17T22:24:18.066Z,38.17
2022-08-17T22:27:00.041Z,38.90
2022-08-17T22:29:57.019Z,38.22
2022-08-17T22:32:31.509Z,38.65
2022-08-17T22:35:32.656Z,38.78
2022-08-17T22:38:20.719Z,37.50
2022-08-17T22:40:57.466Z,38.00
2022-08-17T22:43:28.399Z,37.55
2022-08-17T22:45:58.982Z,38.33
2022-08-17T22:48:28.063Z,37.00
2022-08-17T22:51:12.325Z,37.83
2022-08-17T22:54:06.215Z,37.70
2022-08-17T22:56:51.558Z,37.03
2022-08-17T22:59:49.426Z,38.03
2022-08-17T23:02:19.473Z,37.47
2022-08-17T23:07:18.984Z,37.25
2022-08-17T23:09:45.822Z,36.35
2022-08-17T23:12:16.537Z,37.40
2022-08-17T23:14:45.636Z,38.50
2022-08-17T23:17:16.308Z,37.13
2022-08-17T23:19:43.114Z,37.78
2022-08-17T23:22:10.600Z,38.85
2022-08-17T23:24:45.974Z,37.53
2022-08-17T23:27:12.774Z,37.67
2022-08-17T23:29:41.993Z,38.60
2022-08-17T23:32:14.581Z,38.03
2022-08-17T23:34:43.761Z,37.72
2022-08-17T23:37:12.043Z,37.63
2022-08-17T23:39:39.683Z,38.55
2022-08-17T23:42:14.980Z,38.47
2022-08-17T23:44:43.665Z,38.08
2022-08-17T23:47:11.131Z,37.78
2022-08-17T23:49:38.663Z,37.40
2022-08-17T23:52:07.846Z,37.35
2022-08-17T23:54:41.413Z,36.35
2022-08-17T23:57:09.153Z,37.42
2022-08-17T23:59:37.185Z,35.65
